Bookmark and Share
Track history (hours):
 

F/V Renaissance II

Last reported at 2014-Apr-18 07:30 UTC. Time now 2014-Apr-18 08:12 UTC.
Position N 46°43' W 002°37'.

Length 18 m.

Type: Fishing. MMSI: 228216600.

NotesDate/timePositionNaut miles runAvg speedWind from/ knotsBaromVisibWave heightAir tempDewpointWater temp
2014-Apr-18 07:30N 46°43' W 002°37'10 9.0
2014-Apr-18 06:21N 46°38' W 002°24'7 9.0
2014-Apr-18 05:30N 46°35' W 002°13'9 8.9
2014-Apr-18 04:33N 46°32' W 002°02'9 8.9
2014-Apr-18 03:33N 46°29' W 001°50'2 2.2
2014-Apr-18 02:33N 46°30' W 001°48'0 0.3
2014-Apr-18 01:33N 46°30' W 001°47'2 2.0
2014-Apr-18 00:33N 46°28' W 001°49'9 9.0
2014-Apr-17 23:33N 46°32' W 002°01'9 8.7
2014-Apr-17 22:33N 46°34' W 002°14'9 8.6
2014-Apr-17 21:34N 46°37' W 002°25'12 6.2
2014-Apr-17 19:32N 46°46' W 002°39'3 2.0
2014-Apr-17 18:13N 46°48' W 002°41'4 0.4
2014-Apr-17 09:04N 46°49' W 002°46'0 0.3
2014-Apr-17 08:32N 46°49' W 002°46'1 1.4
2014-Apr-17 07:33N 46°50' W 002°44'1 1.0
2014-Apr-17 06:07N 46°50' W 002°42'0 0.6
2014-Apr-17 05:33N 46°50' W 002°43'1 1.0
2014-Apr-17 04:23N 46°51' W 002°43'  
2014-Apr-13 04:12N 46°14' W 001°58'6 9.5
2014-Apr-13 03:34N 46°20' W 001°54'9 9.4
2014-Apr-13 02:33N 46°28' W 001°47'2 2.2
2014-Apr-13 01:33N 46°30' W 001°47'0 0.0
2014-Apr-13 00:34N 46°30' W 001°47'0 0.0
2014-Apr-12 23:33N 46°30' W 001°47'0 0.0
2014-Apr-12 22:34N 46°30' W 001°47'0 0.0
2014-Apr-12 21:33N 46°30' W 001°47'0 0.0
2014-Apr-12 20:33N 46°30' W 001°47'0 0.0
2014-Apr-12 19:33N 46°30' W 001°47'0 0.0
2014-Apr-12 18:34N 46°30' W 001°47'0 0.0
2014-Apr-12 17:33N 46°30' W 001°47'0 0.0
2014-Apr-12 16:33N 46°30' W 001°47'2 1.9
2014-Apr-12 15:33N 46°28' W 001°47'8 8.5
2014-Apr-12 14:34N 46°20' W 001°44'3 3.0
2014-Apr-12 13:33N 46°17' W 001°44'3 2.9
2014-Apr-12 12:33N 46°15' W 001°42'1 0.5
2014-Apr-12 11:33N 46°14' W 001°41'2 1.9
2014-Apr-12 10:32N 46°15' W 001°44'15 2.1
2014-Apr-12 03:34N 46°30' W 001°47'0 0.0
2014-Apr-12 02:34N 46°30' W 001°47'0 0.0
2014-Apr-12 01:34N 46°30' W 001°47'0 0.0
2014-Apr-12 00:34N 46°30' W 001°47'0 0.0
2014-Apr-11 23:34N 46°30' W 001°47'0 0.0
2014-Apr-11 22:34N 46°30' W 001°47'0 0.0
2014-Apr-11 21:34N 46°30' W 001°47'0 0.0
2014-Apr-11 20:33N 46°30' W 001°47'0 0.0
2014-Apr-11 19:33N 46°30' W 001°47'0 0.0
2014-Apr-11 18:33N 46°30' W 001°47'0 0.0
2014-Apr-11 17:33N 46°30' W 001°47'0 0.0
2014-Apr-11 16:33N 46°30' W 001°47'0 0.0
2014-Apr-11 15:34N 46°30' W 001°47'0 0.0
2014-Apr-11 14:33N 46°30' W 001°47'0 0.0
2014-Apr-11 13:33N 46°30' W 001°47'0 0.0
2014-Apr-11 12:33N 46°30' W 001°47'0 0.0
2014-Apr-11 11:34N 46°30' W 001°47'0 0.0
2014-Apr-11 10:33N 46°30' W 001°47'0 0.0
2014-Apr-11 09:34N 46°30' W 001°47'0 0.0
2014-Apr-11 08:33N 46°30' W 001°47'0 0.0
2014-Apr-11 07:33N 46°30' W 001°47'0 0.0
2014-Apr-11 06:34N 46°30' W 001°47'0 0.0
2014-Apr-11 05:34N 46°30' W 001°47'0 0.0
2014-Apr-11 04:33N 46°30' W 001°47'0 0.0
2014-Apr-11 03:34N 46°30' W 001°47'0 0.0
2014-Apr-11 02:33N 46°30' W 001°47'0 0.0
2014-Apr-11 01:33N 46°30' W 001°47'0 0.0
2014-Apr-11 00:34N 46°30' W 001°47'0 0.0
2014-Apr-10 23:34N 46°30' W 001°47'0 0.0
2014-Apr-10 22:34N 46°30' W 001°47'0 0.0
2014-Apr-10 21:34N 46°30' W 001°47'0 0.0
2014-Apr-10 20:34N 46°30' W 001°47'1 0.8
2014-Apr-10 19:33N 46°29' W 001°47'9 8.9
2014-Apr-10 18:33N 46°23' W 001°56'19 2.9
2014-Apr-10 12:06N 46°14' W 002°20'3 0.7
2014-Apr-10 08:08N 46°11' W 002°18'4 1.9
2014-Apr-10 06:11N 46°12' W 002°13'6 9.0
2014-Apr-10 05:34N 46°15' W 002°06'9 9.4
2014-Apr-10 04:34N 46°22' W 001°56'9 9.2
2014-Apr-10 03:34N 46°28' W 001°47'1 1.5
2014-Apr-10 02:33N 46°30' W 001°47'0 0.0
2014-Apr-09 16:33N 46°30' W 001°47'0 0.0
2014-Apr-09 15:33N 46°30' W 001°47'6 6.3
2014-Apr-09 14:33N 46°28' W 001°56'17 1.7
2014-Apr-09 04:24N 46°18' W 002°16'6 6.6
2014-Apr-09 03:33N 46°21' W 002°09'7 6.6
2014-Apr-09 02:33N 46°24' W 002°01'7 6.5
2014-Apr-09 01:33N 46°27' W 001°52'5 4.6
2014-Apr-09 00:33N 46°30' W 001°47'0 0.0
2014-Apr-08 23:33N 46°30' W 001°47'6 6.5
2014-Apr-08 22:33N 46°30' W 001°57'10 9.2
2014-Apr-08 21:30N 46°32' W 002°10'  

Dump ship's entire track history

sailing weather and tide predictions

F/V Renaissance II — FMEW — position and weather